createdAt,value
2019-06-27T00:08:54.165Z,27.67
2019-06-27T00:18:55.129Z,27.49
2019-06-27T00:28:56.089Z,27.47
2019-06-27T00:38:57.042Z,27.37
2019-06-27T00:48:58.002Z,27.30
2019-06-27T00:58:59.049Z,27.30
2019-06-27T01:09:00.008Z,27.21
2019-06-27T01:19:00.954Z,27.20
2019-06-27T01:29:02.153Z,27.16
2019-06-27T01:39:04.307Z,27.07
2019-06-27T01:49:05.251Z,27.01
2019-06-27T01:59:06.207Z,26.91
2019-06-27T02:09:07.972Z,26.90
2019-06-27T02:19:09.009Z,26.88
2019-06-27T02:29:09.978Z,26.80
2019-06-27T02:39:10.944Z,26.71
2019-06-27T02:49:11.907Z,26.50
2019-06-27T02:59:12.837Z,26.20
2019-06-27T03:09:13.792Z,26.27
2019-06-27T03:19:14.852Z,26.24
2019-06-27T03:29:20.174Z,26.16
2019-06-27T03:39:18.945Z,26.31
2019-06-27T03:49:19.905Z,26.38
2019-06-27T03:59:20.862Z,26.72
2019-06-27T04:09:23.039Z,27.00
2019-06-27T04:19:26.002Z,27.26
2019-06-27T04:29:33.357Z,27.69
2019-06-27T04:39:30.018Z,28.37
2019-06-27T04:49:30.966Z,28.73
2019-06-27T04:59:48.173Z,29.26
2019-06-27T05:09:34.829Z,29.85
2019-06-27T05:19:36.374Z,30.37
2019-06-27T05:29:37.330Z,31.21
2019-06-27T05:39:38.294Z,31.82
2019-06-27T05:49:39.246Z,32.49
2019-06-27T05:59:40.205Z,40.79
2019-06-27T06:09:41.161Z,47.85
2019-06-27T06:19:42.103Z,51.39
2019-06-27T06:29:43.056Z,52.21
2019-06-27T06:39:44.009Z,55.35
2019-06-27T06:49:44.956Z,54.27
2019-06-27T06:59:45.904Z,55.30
2019-06-27T07:09:46.859Z,55.18
2019-06-27T07:19:47.807Z,56.29
2019-06-27T07:29:48.781Z,58.98
2019-06-27T07:39:49.741Z,54.12
2019-06-27T07:49:50.711Z,53.38
2019-06-27T07:59:51.734Z,55.46
2019-06-27T08:09:52.803Z,61.58
2019-06-27T08:19:53.742Z,60.11
2019-06-27T08:29:54.727Z,57.95
2019-06-27T08:39:56.065Z,51.23
2019-06-27T08:50:00.027Z,47.15
2019-06-27T09:00:01.312Z,51.02
2019-06-27T09:10:04.100Z,57.80
2019-06-27T09:20:07.269Z,58.53
2019-06-27T09:30:08.819Z,61.75
2019-06-27T09:40:11.363Z,61.75
2019-06-27T09:50:13.311Z,62.85
2019-06-27T10:00:15.093Z,64.19
2019-06-27T10:10:16.479Z,62.99
2019-06-27T10:20:17.768Z,62.23
2019-06-27T10:30:19.138Z,59.63
2019-06-27T10:40:20.526Z,60.45
2019-06-27T10:50:21.512Z,60.10
2019-06-27T11:00:22.759Z,58.69
2019-06-27T11:10:23.718Z,54.73
2019-06-27T11:20:24.749Z,47.38
2019-06-27T11:30:26.370Z,44.86
2019-06-27T11:40:27.503Z,43.54
2019-06-27T11:50:28.612Z,42.82
2019-06-27T12:00:29.791Z,41.63
2019-06-27T12:10:30.804Z,42.28
2019-06-27T12:20:31.906Z,41.43
2019-06-27T12:30:32.860Z,41.44
2019-06-27T12:40:33.808Z,42.25
2019-06-27T12:50:34.770Z,42.39
2019-06-27T13:00:35.829Z,43.14
2019-06-27T13:10:36.780Z,41.83
2019-06-27T13:20:37.733Z,41.67
2019-06-27T13:30:38.701Z,42.87
2019-06-27T13:40:44.677Z,42.06
2019-06-27T13:50:48.543Z,43.62
2019-06-27T14:00:49.488Z,43.61
2019-06-27T14:10:51.444Z,42.26
2019-06-27T14:20:52.507Z,42.73
2019-06-27T14:30:53.538Z,42.32
2019-06-27T14:40:54.515Z,40.66
2019-06-27T14:50:55.468Z,41.25
2019-06-27T15:00:56.405Z,40.79
2019-06-27T15:10:57.630Z,41.16
2019-06-27T15:20:58.581Z,41.22
2019-06-27T15:30:59.655Z,40.91
2019-06-27T15:41:00.701Z,41.09
2019-06-27T15:51:02.012Z,40.67
2019-06-27T16:01:03.040Z,39.77
2019-06-27T16:11:05.030Z,39.45
2019-06-27T16:21:05.982Z,38.60
2019-06-27T16:31:06.937Z,38.32
2019-06-27T16:41:09.553Z,37.63
2019-06-27T16:51:10.490Z,37.01
2019-06-27T17:01:11.491Z,35.71
2019-06-27T17:11:12.458Z,35.26
2019-06-27T17:21:13.380Z,34.72
2019-06-27T17:31:14.331Z,34.71
2019-06-27T17:41:15.472Z,34.17
2019-06-27T17:51:17.414Z,33.90
2019-06-27T18:01:18.411Z,33.40
2019-06-27T18:11:19.380Z,32.90
2019-06-27T18:21:20.743Z,32.55
2019-06-27T18:31:21.927Z,32.09
2019-06-27T18:41:22.873Z,31.59
2019-06-27T18:51:23.807Z,31.19
2019-06-27T19:01:24.768Z,30.76
2019-06-27T19:11:25.832Z,30.32
2019-06-27T19:21:40.856Z,29.92
2019-06-27T19:31:41.803Z,29.53
2019-06-27T19:41:42.859Z,28.97
2019-06-27T19:51:43.802Z,28.63
2019-06-27T20:01:44.866Z,28.28
2019-06-27T20:11:45.798Z,27.92
2019-06-27T20:21:46.797Z,27.60
2019-06-27T20:31:47.817Z,27.22
2019-06-27T20:41:48.843Z,26.89
2019-06-27T20:51:49.804Z,26.68
2019-06-27T21:01:50.782Z,26.47
2019-06-27T21:11:51.724Z,26.24
2019-06-27T21:21:52.668Z,25.96
2019-06-27T21:31:53.619Z,25.69
2019-06-27T21:41:58.802Z,25.48
2019-06-27T21:51:59.726Z,25.24
2019-06-27T22:02:00.781Z,24.97
2019-06-27T22:12:01.960Z,24.84
2019-06-27T22:22:02.990Z,24.70
2019-06-27T22:32:03.948Z,24.45
2019-06-27T22:42:23.482Z,24.25
2019-06-27T22:52:42.796Z,23.95
2019-06-27T23:02:43.741Z,23.73
2019-06-27T23:12:44.752Z,23.61
2019-06-27T23:22:45.700Z,23.56
2019-06-27T23:32:46.648Z,23.42
2019-06-27T23:42:47.599Z,23.32
2019-06-27T23:52:49.304Z,23.25
